createdAt,value
2019-01-14T00:00:30.908Z,0.00
2019-01-14T00:01:30.930Z,0.00
2019-01-14T00:02:30.877Z,0.00
2019-01-14T00:03:30.865Z,0.00
2019-01-14T00:04:30.882Z,0.00
2019-01-14T00:05:30.851Z,0.00
2019-01-14T00:06:30.891Z,0.00
2019-01-14T00:07:30.826Z,0.00
2019-01-14T00:08:30.805Z,0.00
2019-01-14T00:09:31.441Z,0.00
2019-01-14T00:10:30.815Z,0.00
2019-01-14T00:11:30.784Z,0.00
2019-01-14T00:12:30.808Z,0.00
2019-01-14T00:13:30.770Z,0.00
2019-01-14T00:14:30.757Z,0.00
2019-01-14T00:15:30.723Z,0.00
2019-01-14T00:16:30.720Z,0.00
2019-01-14T00:17:30.722Z,0.00
2019-01-14T00:18:30.701Z,0.00
2019-01-14T00:19:30.700Z,0.00
2019-01-14T00:20:30.678Z,0.00
2019-01-14T00:21:30.681Z,0.00
2019-01-14T00:22:30.661Z,0.00
2019-01-14T00:23:30.652Z,0.00
2019-01-14T00:24:30.617Z,0.00
2019-01-14T00:25:30.612Z,0.00
2019-01-14T00:26:30.612Z,0.00
2019-01-14T00:27:30.604Z,0.00
2019-01-14T00:28:30.582Z,0.00
2019-01-14T00:29:30.561Z,0.00
2019-01-14T00:30:30.561Z,0.00
2019-01-14T00:31:30.563Z,0.00
2019-01-14T00:32:30.553Z,0.00
2019-01-14T00:33:30.542Z,0.00
2019-01-14T00:34:30.514Z,0.00
2019-01-14T00:35:30.499Z,0.00
2019-01-14T00:36:30.491Z,0.00
2019-01-14T00:37:30.492Z,0.00
2019-01-14T00:38:31.823Z,0.00
2019-01-14T00:39:30.456Z,0.00
2019-01-14T00:40:30.450Z,0.00
2019-01-14T00:41:30.436Z,0.00
2019-01-14T00:42:30.437Z,0.00
2019-01-14T00:43:30.405Z,0.00
2019-01-14T00:44:30.395Z,0.00
2019-01-14T00:45:30.381Z,0.00
2019-01-14T00:46:30.368Z,0.00
2019-01-14T00:47:30.384Z,0.00
2019-01-14T00:48:30.367Z,0.00
2019-01-14T00:49:30.346Z,0.00
2019-01-14T00:50:30.330Z,0.00
2019-01-14T00:51:30.343Z,0.00
2019-01-14T00:52:30.326Z,0.00
2019-01-14T00:53:30.291Z,0.00
2019-01-14T00:54:30.287Z,0.00
2019-01-14T00:55:30.283Z,0.00
2019-01-14T00:56:30.275Z,0.00
2019-01-14T00:57:30.305Z,0.00
2019-01-14T00:58:30.246Z,0.00
2019-01-14T00:59:30.243Z,0.00
2019-01-14T01:00:30.254Z,0.00
2019-01-14T01:01:30.241Z,0.00
2019-01-14T01:02:30.218Z,0.00
2019-01-14T01:03:30.185Z,0.00
2019-01-14T01:04:30.175Z,0.00
2019-01-14T01:05:30.169Z,0.00
2019-01-14T01:06:30.161Z,0.00
2019-01-14T01:07:30.166Z,0.00
2019-01-14T01:08:30.141Z,0.00
2019-01-14T01:09:30.117Z,0.00
2019-01-14T01:10:30.113Z,0.00
2019-01-14T01:11:30.095Z,0.00
2019-01-14T01:12:30.095Z,0.00
2019-01-14T01:13:30.082Z,0.00
2019-01-14T01:14:30.062Z,0.00
2019-01-14T01:15:30.056Z,0.00
2019-01-14T01:16:30.040Z,0.00
2019-01-14T01:17:30.042Z,0.00
2019-01-14T01:18:30.013Z,0.00
2019-01-14T01:19:30.008Z,0.00
2019-01-14T01:20:29.994Z,0.00
2019-01-14T01:21:30.000Z,0.00
2019-01-14T01:22:29.987Z,0.00
2019-01-14T01:23:29.960Z,0.00
2019-01-14T01:24:29.961Z,0.00
2019-01-14T01:25:29.944Z,0.00
2019-01-14T01:26:29.933Z,0.00
2019-01-14T01:27:29.927Z,0.00
2019-01-14T01:28:29.920Z,0.00
2019-01-14T01:29:29.905Z,0.00
2019-01-14T01:30:29.903Z,0.00
2019-01-14T01:31:29.897Z,0.00
2019-01-14T01:32:29.888Z,0.00
2019-01-14T01:33:29.839Z,0.00
2019-01-14T01:34:29.848Z,0.00
2019-01-14T01:35:29.842Z,0.00
2019-01-14T01:36:32.023Z,0.00
2019-01-14T01:37:29.826Z,0.00
2019-01-14T01:38:29.798Z,0.00
2019-01-14T01:39:29.791Z,0.00
2019-01-14T01:40:29.808Z,0.00
2019-01-14T01:41:29.783Z,0.00
2019-01-14T01:42:29.772Z,0.00
2019-01-14T01:43:29.733Z,0.00
2019-01-14T01:44:29.723Z,0.00
2019-01-14T01:45:29.740Z,0.00
2019-01-14T01:46:29.700Z,0.00
2019-01-14T01:47:29.731Z,0.00
2019-01-14T01:48:29.693Z,0.00
2019-01-14T01:49:29.678Z,0.00
2019-01-14T01:50:29.683Z,0.00
2019-01-14T01:51:29.661Z,0.00
2019-01-14T01:52:29.817Z,0.00
2019-01-14T01:53:29.622Z,0.00
2019-01-14T01:54:29.618Z,0.00
2019-01-14T01:55:29.597Z,0.00
2019-01-14T01:56:29.593Z,0.00
2019-01-14T01:57:29.588Z,0.00
2019-01-14T01:58:29.560Z,0.00
2019-01-14T01:59:29.547Z,0.00
2019-01-14T02:00:29.538Z,0.00
2019-01-14T02:01:29.527Z,0.00
2019-01-14T02:02:29.530Z,0.00
2019-01-14T02:03:29.503Z,0.00
2019-01-14T02:04:29.492Z,0.00
2019-01-14T02:05:29.482Z,0.00
2019-01-14T02:06:29.463Z,0.00
2019-01-14T02:07:29.470Z,0.00
2019-01-14T02:08:29.444Z,0.00
2019-01-14T02:09:29.437Z,0.00
2019-01-14T02:10:29.425Z,0.00
2019-01-14T02:11:29.427Z,0.00
2019-01-14T02:12:29.411Z,0.00
2019-01-14T02:13:29.393Z,0.00
2019-01-14T02:14:29.371Z,0.00
2019-01-14T02:15:29.369Z,0.00
2019-01-14T02:16:29.354Z,0.00
2019-01-14T02:17:29.390Z,0.00
2019-01-14T02:18:29.331Z,0.00
2019-01-14T02:19:29.322Z,0.00
2019-01-14T02:20:29.310Z,0.00
2019-01-14T02:21:29.302Z,0.00
2019-01-14T02:22:29.291Z,0.00
2019-01-14T02:23:29.316Z,0.00
2019-01-14T02:24:29.285Z,0.00
2019-01-14T02:25:29.254Z,0.00
2019-01-14T02:26:29.250Z,0.00
2019-01-14T02:27:29.226Z,0.00
2019-01-14T02:28:29.234Z,0.00
2019-01-14T02:29:29.214Z,0.00
2019-01-14T02:30:29.216Z,0.00
2019-01-14T02:31:29.189Z,0.00
2019-01-14T02:32:29.183Z,0.00
2019-01-14T02:33:29.189Z,0.00
2019-01-14T02:34:29.159Z,0.00
2019-01-14T02:35:29.148Z,0.00
2019-01-14T02:36:29.136Z,0.00
2019-01-14T02:37:29.120Z,0.00
2019-01-14T02:38:29.135Z,0.00
2019-01-14T02:39:29.103Z,0.00
2019-01-14T02:40:29.089Z,0.00
2019-01-14T02:41:29.074Z,0.00
2019-01-14T02:42:29.086Z,0.00
2019-01-14T02:43:29.074Z,0.00
2019-01-14T02:44:29.041Z,0.00
2019-01-14T02:45:29.030Z,0.00
2019-01-14T02:46:29.025Z,0.00
2019-01-14T02:47:29.008Z,0.00
2019-01-14T02:48:29.064Z,0.00
2019-01-14T02:49:28.997Z,0.00
2019-01-14T02:50:28.973Z,0.00
2019-01-14T02:51:28.969Z,0.00
2019-01-14T02:52:28.961Z,0.00
2019-01-14T02:53:28.958Z,0.00
2019-01-14T02:54:28.927Z,0.00
2019-01-14T02:55:28.914Z,0.00
2019-01-14T02:56:28.901Z,0.00
2019-01-14T02:57:28.896Z,0.00
2019-01-14T02:58:28.908Z,0.00
2019-01-14T02:59:28.882Z,0.00
2019-01-14T03:00:28.863Z,0.00
2019-01-14T03:01:28.862Z,0.00
2019-01-14T03:02:28.841Z,0.00
2019-01-14T03:03:28.891Z,0.00
2019-01-14T03:04:28.820Z,0.00
2019-01-14T03:05:28.813Z,0.00
2019-01-14T03:06:28.818Z,0.00
2019-01-14T03:07:28.783Z,0.00
2019-01-14T03:08:28.809Z,0.00
2019-01-14T03:09:28.780Z,0.00
2019-01-14T03:10:28.751Z,0.00
2019-01-14T03:11:28.743Z,0.00
2019-01-14T03:12:28.730Z,0.00
2019-01-14T03:13:28.750Z,0.00
2019-01-14T03:14:28.730Z,0.00
2019-01-14T03:15:28.698Z,0.00
2019-01-14T03:16:28.739Z,0.00
2019-01-14T03:17:28.678Z,0.00
2019-01-14T03:18:28.676Z,0.00
2019-01-14T03:19:28.650Z,0.00
2019-01-14T03:20:28.662Z,0.00
2019-01-14T03:21:28.625Z,0.00
2019-01-14T03:22:28.644Z,0.00
2019-01-14T03:23:28.620Z,0.00
2019-01-14T03:24:28.584Z,0.00
2019-01-14T03:25:28.602Z,0.00
2019-01-14T03:26:28.598Z,0.00
2019-01-14T03:27:28.554Z,0.00
2019-01-14T03:28:28.556Z,0.00
2019-01-14T03:29:28.547Z,0.00
2019-01-14T03:30:28.531Z,0.00
2019-01-14T03:31:28.509Z,0.00
2019-01-14T03:32:28.515Z,0.00
2019-01-14T03:33:28.509Z,0.00
2019-01-14T03:34:28.519Z,0.00
2019-01-14T03:35:28.469Z,0.00
2019-01-14T03:36:28.455Z,0.00
2019-01-14T03:37:28.455Z,0.00
2019-01-14T03:38:28.467Z,0.00
2019-01-14T03:39:28.419Z,0.00
2019-01-14T03:40:28.406Z,0.00
2019-01-14T03:41:28.411Z,0.00
2019-01-14T03:42:28.398Z,0.00
2019-01-14T03:43:28.398Z,0.00
2019-01-14T03:44:28.376Z,0.00
2019-01-14T03:45:28.356Z,0.00
2019-01-14T03:46:28.385Z,0.00
2019-01-14T03:47:28.352Z,0.00
2019-01-14T03:48:28.351Z,0.00
2019-01-14T03:49:28.317Z,0.00
2019-01-14T03:50:28.328Z,0.00
2019-01-14T03:51:28.297Z,0.00
2019-01-14T03:52:28.277Z,0.00
2019-01-14T03:53:28.286Z,0.00
2019-01-14T03:54:28.250Z,0.00
2019-01-14T03:55:28.277Z,0.00
2019-01-14T03:56:28.299Z,0.00
2019-01-14T03:57:28.248Z,0.00
2019-01-14T03:58:28.225Z,0.00
2019-01-14T03:59:28.209Z,0.00
2019-01-14T04:00:28.174Z,0.00
2019-01-14T04:01:28.206Z,0.00
2019-01-14T04:02:28.165Z,0.00
2019-01-14T04:03:28.254Z,0.00
2019-01-14T04:04:28.160Z,0.00
2019-01-14T04:05:28.146Z,0.00
2019-01-14T04:06:28.117Z,0.00
2019-01-14T04:07:28.102Z,0.00
2019-01-14T04:08:28.104Z,0.00
2019-01-14T04:09:28.090Z,0.00
2019-01-14T04:10:28.071Z,0.00
2019-01-14T04:11:28.090Z,0.00
2019-01-14T04:12:28.046Z,0.00
2019-01-14T04:13:28.057Z,0.00
2019-01-14T04:14:28.077Z,0.00
2019-01-14T04:15:28.014Z,0.00
2019-01-14T04:16:28.023Z,0.00
2019-01-14T04:17:28.005Z,0.00
2019-01-14T04:18:27.991Z,0.00
2019-01-14T04:19:27.972Z,0.00
2019-01-14T04:20:27.978Z,0.00
2019-01-14T04:21:27.948Z,0.00
2019-01-14T04:22:27.934Z,0.00
2019-01-14T04:23:27.956Z,0.00
2019-01-14T04:24:27.959Z,0.00
2019-01-14T04:25:27.926Z,0.00
2019-01-14T04:26:27.908Z,0.00
2019-01-14T04:27:27.881Z,0.00
2019-01-14T04:28:27.873Z,0.00
2019-01-14T04:29:27.896Z,0.00
2019-01-14T04:30:27.844Z,0.00
2019-01-14T04:31:27.833Z,0.00
2019-01-14T04:32:27.830Z,0.00
2019-01-14T04:33:27.828Z,0.00
2019-01-14T04:34:27.817Z,0.00
2019-01-14T04:35:27.808Z,0.00
2019-01-14T04:36:27.780Z,0.00
2019-01-14T04:37:27.762Z,0.00
2019-01-14T04:38:27.752Z,0.00
2019-01-14T04:39:27.754Z,0.00
2019-01-14T04:40:27.738Z,0.00
2019-01-14T04:41:27.718Z,0.00
2019-01-14T04:42:27.702Z,0.00
2019-01-14T04:43:27.700Z,0.00
2019-01-14T04:44:27.707Z,0.00
2019-01-14T04:45:27.682Z,0.00
2019-01-14T04:46:27.676Z,0.00
2019-01-14T04:47:27.644Z,0.00
2019-01-14T04:48:27.647Z,0.00
2019-01-14T04:49:27.665Z,0.00
2019-01-14T04:50:27.626Z,0.00
2019-01-14T04:51:27.597Z,0.00
2019-01-14T04:52:27.605Z,0.00
2019-01-14T04:53:27.576Z,0.00
2019-01-14T04:54:27.581Z,0.00
2019-01-14T04:55:27.560Z,0.00
2019-01-14T04:56:27.542Z,0.00
2019-01-14T04:57:27.540Z,0.00
2019-01-14T04:58:27.524Z,0.00
2019-01-14T04:59:27.525Z,0.00
2019-01-14T05:00:27.496Z,0.00
2019-01-14T05:01:27.485Z,0.00
2019-01-14T05:02:27.469Z,0.00
2019-01-14T05:03:27.508Z,0.00
2019-01-14T05:04:27.463Z,0.00
2019-01-14T05:05:27.439Z,0.00
2019-01-14T05:06:27.442Z,0.00
2019-01-14T05:07:29.748Z,0.00
2019-01-14T05:08:27.408Z,0.00
2019-01-14T05:09:27.457Z,0.00
2019-01-14T05:10:27.383Z,0.00
2019-01-14T05:11:27.369Z,0.00
2019-01-14T05:12:27.417Z,0.00
2019-01-14T05:13:27.344Z,0.00
2019-01-14T05:14:27.396Z,0.00
2019-01-14T05:15:27.330Z,0.00
2019-01-14T05:16:27.315Z,0.00
2019-01-14T05:17:27.346Z,0.00
2019-01-14T05:18:27.293Z,0.00
2019-01-14T05:19:27.297Z,0.00
2019-01-14T05:20:27.293Z,0.00
2019-01-14T05:21:27.260Z,0.00
2019-01-14T05:22:27.244Z,0.00
2019-01-14T05:23:27.234Z,0.00
2019-01-14T05:24:27.237Z,0.00
2019-01-14T05:25:27.212Z,0.00
2019-01-14T05:26:27.208Z,0.00
2019-01-14T05:27:27.249Z,0.00
2019-01-14T05:28:27.178Z,0.00
2019-01-14T05:29:27.185Z,0.00
2019-01-14T05:30:27.154Z,0.00
2019-01-14T05:31:27.148Z,0.00
2019-01-14T05:32:27.133Z,0.00
2019-01-14T05:33:27.143Z,0.00
2019-01-14T05:34:27.143Z,0.00
2019-01-14T05:35:27.127Z,0.00
2019-01-14T05:36:27.095Z,0.00
2019-01-14T05:37:27.086Z,0.00
2019-01-14T05:38:27.064Z,0.00
2019-01-14T05:39:27.070Z,0.00
2019-01-14T05:40:27.043Z,0.00
2019-01-14T05:41:27.044Z,0.00
2019-01-14T05:42:27.023Z,0.00
2019-01-14T05:43:27.010Z,0.00
2019-01-14T05:44:27.012Z,0.00
2019-01-14T05:45:26.984Z,0.00
2019-01-14T05:46:26.973Z,0.00
2019-01-14T05:47:26.977Z,0.00
2019-01-14T05:48:26.960Z,0.00
2019-01-14T05:49:26.964Z,0.00
2019-01-14T05:50:26.930Z,0.00
2019-01-14T05:51:26.915Z,0.00
2019-01-14T05:52:26.902Z,0.00
2019-01-14T05:53:26.920Z,0.00
2019-01-14T05:54:26.904Z,0.00
2019-01-14T05:55:26.907Z,0.00
2019-01-14T05:56:26.868Z,0.00
2019-01-14T05:57:26.855Z,0.00
2019-01-14T05:58:26.839Z,0.00
2019-01-14T05:59:26.845Z,0.00
2019-01-14T06:00:26.816Z,0.00
2019-01-14T06:01:26.827Z,0.00
2019-01-14T06:02:26.798Z,0.00
2019-01-14T06:03:26.791Z,0.00
2019-01-14T06:04:26.788Z,0.00
2019-01-14T06:05:26.763Z,0.00
2019-01-14T06:06:26.774Z,0.00
2019-01-14T06:07:26.753Z,0.00
2019-01-14T06:08:26.751Z,0.00
2019-01-14T06:09:26.739Z,0.00
2019-01-14T06:10:26.752Z,0.00
2019-01-14T06:11:26.693Z,0.00
2019-01-14T06:12:26.686Z,0.00
2019-01-14T06:13:26.689Z,0.00
2019-01-14T06:14:26.699Z,0.00
2019-01-14T06:15:26.645Z,0.00
2019-01-14T06:16:26.638Z,0.00
2019-01-14T06:17:26.625Z,0.00
2019-01-14T06:18:26.615Z,0.00
2019-01-14T06:19:26.614Z,0.00
2019-01-14T06:20:26.617Z,0.00
2019-01-14T06:21:26.581Z,0.00
2019-01-14T06:22:26.565Z,0.00
2019-01-14T06:23:26.553Z,0.00
2019-01-14T06:24:26.559Z,0.00
2019-01-14T06:25:26.529Z,0.00
2019-01-14T06:26:26.533Z,0.00
2019-01-14T06:27:26.507Z,0.00
2019-01-14T06:28:26.500Z,0.00
2019-01-14T06:29:26.500Z,0.00
2019-01-14T06:30:26.475Z,0.00
2019-01-14T06:31:26.467Z,0.00
2019-01-14T06:32:26.479Z,0.00
2019-01-14T06:33:26.445Z,0.00
2019-01-14T06:34:26.429Z,0.00
2019-01-14T06:35:26.440Z,0.00
2019-01-14T06:36:26.415Z,0.00
2019-01-14T06:37:26.407Z,0.00
2019-01-14T06:38:26.386Z,0.00
2019-01-14T06:39:26.418Z,0.00
2019-01-14T06:40:26.397Z,0.00
2019-01-14T06:41:26.361Z,0.00
2019-01-14T06:42:26.348Z,0.00
2019-01-14T06:43:26.329Z,0.00
2019-01-14T06:44:26.339Z,0.00
2019-01-14T06:45:26.390Z,0.00
2019-01-14T06:46:26.300Z,0.00
2019-01-14T06:47:26.288Z,4.00
2019-01-14T06:48:26.286Z,0.00
2019-01-14T06:49:26.274Z,0.00
2019-01-14T06:50:26.266Z,0.00
2019-01-14T06:51:26.267Z,4.00
2019-01-14T06:52:26.286Z,0.00
2019-01-14T06:53:26.271Z,0.00
2019-01-14T06:54:26.212Z,4.00
2019-01-14T06:55:26.221Z,0.00
2019-01-14T06:56:26.187Z,4.00
2019-01-14T06:57:26.186Z,12.00
2019-01-14T06:58:26.156Z,12.00
2019-01-14T06:59:26.147Z,8.00
2019-01-14T07:00:26.155Z,4.00
2019-01-14T07:01:26.132Z,8.00
2019-01-14T07:02:26.117Z,8.00
2019-01-14T07:03:26.256Z,8.00
2019-01-14T07:04:26.119Z,16.00
2019-01-14T07:05:26.099Z,16.00
2019-01-14T07:06:26.098Z,20.00
2019-01-14T07:07:26.083Z,28.00
2019-01-14T07:08:26.057Z,24.00
2019-01-14T07:09:26.078Z,32.00
2019-01-14T07:10:26.062Z,28.00
2019-01-14T07:11:26.042Z,28.00
2019-01-14T07:12:26.008Z,24.00
2019-01-14T07:13:26.150Z,24.00
2019-01-14T07:14:26.017Z,28.00
2019-01-14T07:15:26.011Z,36.00
2019-01-14T07:16:25.978Z,48.00
2019-01-14T07:17:25.970Z,64.00
2019-01-14T07:18:25.972Z,88.00
2019-01-14T07:19:25.928Z,112.00
2019-01-14T07:20:25.948Z,120.00
2019-01-14T07:21:25.909Z,112.00
2019-01-14T07:22:25.894Z,104.00
2019-01-14T07:23:25.908Z,100.00
2019-01-14T07:24:25.870Z,96.00
2019-01-14T07:25:25.891Z,124.00
2019-01-14T07:26:25.880Z,172.00
2019-01-14T07:27:25.834Z,172.00
2019-01-14T07:28:25.846Z,188.00
2019-01-14T07:29:25.824Z,224.00
2019-01-14T07:30:25.819Z,228.00
2019-01-14T07:31:25.789Z,204.00
2019-01-14T07:32:25.808Z,184.00
2019-01-14T07:33:25.813Z,228.00
2019-01-14T07:34:25.768Z,380.00
2019-01-14T07:35:25.761Z,440.00
2019-01-14T07:36:25.740Z,392.00
2019-01-14T07:37:25.731Z,364.00
2019-01-14T07:38:25.702Z,520.00
2019-01-14T07:39:25.721Z,672.00
2019-01-14T07:40:25.717Z,668.00
2019-01-14T07:41:25.685Z,540.00
2019-01-14T07:42:25.673Z,456.00
2019-01-14T07:43:25.673Z,512.00
2019-01-14T07:44:25.654Z,640.00
2019-01-14T07:45:25.658Z,752.00
2019-01-14T07:46:25.613Z,844.00
2019-01-14T07:47:25.630Z,876.00
2019-01-14T07:48:25.590Z,884.00
2019-01-14T07:49:25.596Z,896.00
2019-01-14T07:50:25.584Z,880.00
2019-01-14T07:51:25.594Z,900.00
2019-01-14T07:52:25.579Z,848.00
2019-01-14T07:53:25.537Z,788.00
2019-01-14T07:54:25.524Z,756.00
2019-01-14T07:55:25.533Z,676.00
2019-01-14T07:56:25.510Z,572.00
2019-01-14T07:57:25.543Z,544.00
2019-01-14T07:58:25.486Z,556.00
2019-01-14T07:59:25.469Z,548.00
2019-01-14T08:00:25.467Z,580.00
2019-01-14T08:01:25.443Z,580.00
2019-01-14T08:02:25.443Z,528.00
2019-01-14T08:03:25.456Z,528.00
2019-01-14T08:04:25.416Z,520.00
2019-01-14T08:05:25.410Z,464.00
2019-01-14T08:06:25.391Z,436.00
2019-01-14T08:07:25.379Z,444.00
2019-01-14T08:08:25.369Z,468.00
2019-01-14T08:09:25.382Z,480.00
2019-01-14T08:10:25.355Z,452.00
2019-01-14T08:11:25.328Z,452.00
2019-01-14T08:12:25.328Z,468.00
2019-01-14T08:13:25.317Z,480.00
2019-01-14T08:14:25.318Z,476.00
2019-01-14T08:15:25.307Z,480.00
2019-01-14T08:16:25.335Z,508.00
2019-01-14T08:17:25.262Z,544.00
2019-01-14T08:18:25.265Z,572.00
2019-01-14T08:19:25.233Z,560.00
2019-01-14T08:20:25.246Z,480.00
2019-01-14T08:21:25.247Z,424.00
2019-01-14T08:22:25.245Z,384.00
2019-01-14T08:23:25.195Z,340.00
2019-01-14T08:24:25.190Z,328.00
2019-01-14T08:25:25.185Z,312.00
2019-01-14T08:26:25.169Z,356.00
2019-01-14T08:27:25.146Z,396.00
2019-01-14T08:28:25.181Z,368.00
2019-01-14T08:29:25.124Z,352.00
2019-01-14T08:30:25.147Z,352.00
2019-01-14T08:31:25.135Z,344.00
2019-01-14T08:32:25.187Z,344.00
2019-01-14T08:33:25.117Z,372.00
2019-01-14T08:34:25.063Z,364.00
2019-01-14T08:35:25.070Z,372.00
2019-01-14T08:36:25.111Z,404.00
2019-01-14T08:37:25.043Z,480.00
2019-01-14T08:38:25.020Z,584.00
2019-01-14T08:39:25.024Z,640.00
2019-01-14T08:40:24.988Z,732.00
2019-01-14T08:41:24.996Z,680.00
2019-01-14T08:42:24.973Z,524.00
2019-01-14T08:43:25.826Z,528.00
2019-01-14T08:44:25.788Z,532.00
2019-01-14T08:45:24.986Z,564.00
2019-01-14T08:46:24.943Z,572.00
2019-01-14T08:47:24.939Z,624.00
2019-01-14T08:48:24.902Z,696.00
2019-01-14T08:49:24.885Z,924.00
2019-01-14T08:50:24.879Z,1188.00
2019-01-14T08:51:24.884Z,1272.00
2019-01-14T08:52:24.859Z,1116.00
2019-01-14T08:53:25.852Z,988.00
2019-01-14T08:54:24.840Z,952.00
2019-01-14T08:55:24.828Z,968.00
2019-01-14T08:56:24.820Z,840.00
2019-01-14T08:57:26.839Z,700.00
2019-01-14T08:58:24.813Z,628.00
2019-01-14T08:59:24.826Z,600.00
2019-01-14T09:00:24.771Z,580.00
2019-01-14T09:01:24.780Z,580.00
2019-01-14T09:02:24.761Z,468.00
2019-01-14T09:03:24.738Z,472.00
2019-01-14T09:04:24.787Z,520.00
2019-01-14T09:05:24.760Z,592.00
2019-01-14T09:06:24.723Z,808.00
2019-01-14T09:07:24.704Z,940.00
2019-01-14T09:08:28.683Z,1004.00
2019-01-14T09:09:24.721Z,1104.00
2019-01-14T09:10:24.660Z,1440.00
2019-01-14T09:11:24.670Z,1320.00
2019-01-14T09:12:24.635Z,1328.00
2019-01-14T09:13:24.614Z,1120.00
2019-01-14T09:14:24.612Z,1032.00
2019-01-14T09:15:24.607Z,872.00
2019-01-14T09:16:24.603Z,972.00
2019-01-14T09:17:24.580Z,872.00
2019-01-14T09:18:24.587Z,812.00
2019-01-14T09:19:24.564Z,1064.00
2019-01-14T09:20:24.540Z,1132.00
2019-01-14T09:21:24.609Z,908.00
2019-01-14T09:22:24.535Z,924.00
2019-01-14T09:23:24.529Z,832.00
2019-01-14T09:24:24.490Z,904.00
2019-01-14T09:25:24.478Z,808.00
2019-01-14T09:26:24.491Z,848.00
2019-01-14T09:27:24.528Z,800.00
2019-01-14T09:28:24.463Z,736.00
2019-01-14T09:29:24.434Z,596.00
2019-01-14T09:30:24.454Z,684.00
2019-01-14T09:31:24.446Z,624.00
2019-01-14T09:32:24.399Z,544.00
2019-01-14T09:33:24.386Z,592.00
2019-01-14T09:34:24.418Z,664.00
2019-01-14T09:35:24.363Z,668.00
2019-01-14T09:36:24.365Z,836.00
2019-01-14T09:37:24.370Z,1036.00
2019-01-14T09:38:24.346Z,924.00
2019-01-14T09:39:24.356Z,780.00
2019-01-14T09:40:24.311Z,840.00
2019-01-14T09:41:24.313Z,700.00
2019-01-14T09:42:27.979Z,768.00
2019-01-14T09:43:24.289Z,1152.00
2019-01-14T09:44:24.262Z,1676.00
2019-01-14T09:45:24.246Z,1516.00
2019-01-14T09:46:24.313Z,968.00
2019-01-14T09:47:24.229Z,1136.00
2019-01-14T09:48:24.234Z,984.00
2019-01-14T09:49:24.222Z,996.00
2019-01-14T09:50:24.201Z,1080.00
2019-01-14T09:51:24.226Z,1464.00
2019-01-14T09:52:24.194Z,2044.00
2019-01-14T09:53:24.166Z,2236.00
2019-01-14T09:54:24.140Z,1704.00
2019-01-14T09:55:24.132Z,1296.00
2019-01-14T09:56:24.132Z,1328.00
2019-01-14T09:57:24.108Z,1864.00
2019-01-14T09:58:24.130Z,2232.00
2019-01-14T09:59:24.092Z,2368.00
2019-01-14T10:00:24.078Z,1956.00
2019-01-14T10:01:24.085Z,1412.00
2019-01-14T10:02:24.060Z,1056.00
2019-01-14T10:03:24.050Z,976.00
2019-01-14T10:04:24.096Z,996.00
2019-01-14T10:05:24.038Z,1104.00
2019-01-14T10:06:24.120Z,1392.00
2019-01-14T10:07:24.003Z,1940.00
2019-01-14T10:08:23.984Z,2616.00
2019-01-14T10:09:23.971Z,2508.00
2019-01-14T10:10:23.971Z,2212.00
2019-01-14T10:11:24.004Z,2420.00
2019-01-14T10:12:23.948Z,2944.00
2019-01-14T10:13:24.094Z,2876.00
2019-01-14T10:14:23.922Z,2436.00
2019-01-14T10:15:23.914Z,2540.00
2019-01-14T10:16:23.906Z,2460.00
2019-01-14T10:17:23.896Z,2276.00
2019-01-14T10:18:23.872Z,1984.00
2019-01-14T10:19:23.871Z,2008.00
2019-01-14T10:20:23.862Z,1680.00
2019-01-14T10:21:24.047Z,1612.00
2019-01-14T10:22:23.832Z,1448.00
2019-01-14T10:23:23.830Z,1752.00
2019-01-14T10:24:23.817Z,1560.00
2019-01-14T10:25:23.797Z,1216.00
2019-01-14T10:26:23.817Z,1236.00
2019-01-14T10:27:23.812Z,1796.00
2019-01-14T10:28:23.765Z,1900.00
2019-01-14T10:29:23.739Z,1108.00
2019-01-14T10:30:23.759Z,1100.00
2019-01-14T10:31:23.753Z,1624.00
2019-01-14T10:32:23.721Z,2048.00
2019-01-14T10:33:23.707Z,2000.00
2019-01-14T10:34:23.708Z,2460.00
2019-01-14T10:35:23.693Z,2584.00
2019-01-14T10:36:23.730Z,2348.00
2019-01-14T10:37:23.666Z,1972.00
2019-01-14T10:38:23.642Z,1448.00
2019-01-14T10:39:23.629Z,1204.00
2019-01-14T10:40:23.721Z,940.00
2019-01-14T10:41:23.640Z,1112.00
2019-01-14T10:42:23.621Z,1436.00
2019-01-14T10:43:23.584Z,1228.00
2019-01-14T10:44:23.577Z,980.00
2019-01-14T10:45:23.631Z,976.00
2019-01-14T10:46:23.613Z,1024.00
2019-01-14T10:47:23.565Z,924.00
2019-01-14T10:48:23.605Z,932.00
2019-01-14T10:49:23.529Z,1056.00
2019-01-14T10:50:23.507Z,980.00
2019-01-14T10:51:23.498Z,920.00
2019-01-14T10:52:24.368Z,864.00
2019-01-14T10:53:23.471Z,788.00
2019-01-14T10:54:23.474Z,652.00
2019-01-14T10:55:23.506Z,556.00
2019-01-14T10:56:23.538Z,476.00
2019-01-14T10:57:23.461Z,532.00
2019-01-14T10:58:23.450Z,1084.00
2019-01-14T10:59:23.402Z,1540.00
2019-01-14T11:00:23.464Z,1572.00
2019-01-14T11:01:23.409Z,1624.00
2019-01-14T11:02:23.407Z,2008.00
2019-01-14T11:03:23.365Z,2024.00
2019-01-14T11:04:23.343Z,2188.00
2019-01-14T11:05:23.351Z,2252.00
2019-01-14T11:06:23.338Z,2028.00
2019-01-14T11:07:23.339Z,2016.00
2019-01-14T11:08:23.302Z,2100.00
2019-01-14T11:09:23.341Z,2224.00
2019-01-14T11:10:23.339Z,2232.00
2019-01-14T11:11:23.283Z,2304.00
2019-01-14T11:12:23.311Z,2020.00
2019-01-14T11:13:23.273Z,2224.00
2019-01-14T11:14:23.236Z,2272.00
2019-01-14T11:15:23.219Z,2724.00
2019-01-14T11:16:23.238Z,2696.00
2019-01-14T11:17:23.246Z,2580.00
2019-01-14T11:18:23.199Z,2508.00
2019-01-14T11:19:23.177Z,2436.00
2019-01-14T11:20:23.165Z,2008.00
2019-01-14T11:21:23.160Z,2320.00
2019-01-14T11:22:23.174Z,2552.00
2019-01-14T11:23:23.126Z,2644.00
2019-01-14T11:24:23.116Z,2528.00
2019-01-14T11:25:23.103Z,2252.00
2019-01-14T11:26:23.103Z,1976.00
2019-01-14T11:27:23.120Z,1956.00
2019-01-14T11:28:23.083Z,1900.00
2019-01-14T11:29:23.059Z,1900.00
2019-01-14T11:30:23.043Z,1780.00
2019-01-14T11:31:23.046Z,1532.00
2019-01-14T11:32:23.054Z,1588.00
2019-01-14T11:33:23.020Z,1164.00
2019-01-14T11:34:23.010Z,1108.00
2019-01-14T11:35:23.013Z,1372.00
2019-01-14T11:36:22.985Z,1316.00
2019-01-14T11:37:22.983Z,1204.00
2019-01-14T11:38:22.958Z,1356.00
2019-01-14T11:39:22.944Z,1316.00
2019-01-14T11:40:22.935Z,1084.00
2019-01-14T11:41:22.928Z,824.00
2019-01-14T11:42:22.935Z,940.00
2019-01-14T11:43:23.040Z,776.00
2019-01-14T11:44:22.888Z,1308.00
2019-01-14T11:45:22.882Z,1772.00
2019-01-14T11:46:22.939Z,1824.00
2019-01-14T11:47:22.904Z,1588.00
2019-01-14T11:48:22.845Z,1396.00
2019-01-14T11:49:22.833Z,792.00
2019-01-14T11:50:22.839Z,728.00
2019-01-14T11:51:22.839Z,1080.00
2019-01-14T11:52:22.818Z,1428.00
2019-01-14T11:53:23.392Z,1656.00
2019-01-14T11:54:22.769Z,1532.00
2019-01-14T11:55:22.806Z,1252.00
2019-01-14T11:56:22.760Z,1052.00
2019-01-14T11:57:22.760Z,1064.00
2019-01-14T11:58:22.792Z,1176.00
2019-01-14T11:59:23.328Z,888.00
2019-01-14T12:00:23.349Z,692.00
2019-01-14T12:01:22.753Z,728.00
2019-01-14T12:02:22.882Z,772.00
2019-01-14T12:03:22.680Z,1088.00
2019-01-14T12:04:22.664Z,1156.00
2019-01-14T12:05:22.682Z,1664.00
2019-01-14T12:06:22.639Z,2036.00
2019-01-14T12:07:22.661Z,2496.00
2019-01-14T12:08:22.629Z,3388.00
2019-01-14T12:09:22.616Z,2944.00
2019-01-14T12:10:22.617Z,2212.00
2019-01-14T12:11:22.591Z,1504.00
2019-01-14T12:12:22.614Z,1392.00
2019-01-14T12:13:22.560Z,1648.00
2019-01-14T12:14:22.548Z,1956.00
2019-01-14T12:15:22.563Z,1508.00
2019-01-14T12:16:22.543Z,1440.00
2019-01-14T12:17:22.587Z,1592.00
2019-01-14T12:18:22.506Z,1856.00
2019-01-14T12:19:22.486Z,1796.00
2019-01-14T12:20:25.338Z,1928.00
2019-01-14T12:21:22.473Z,1188.00
2019-01-14T12:22:22.477Z,1276.00
2019-01-14T12:23:22.526Z,1384.00
2019-01-14T12:24:22.445Z,1660.00
2019-01-14T12:25:22.425Z,1960.00
2019-01-14T12:26:22.461Z,1956.00
2019-01-14T12:27:24.862Z,2080.00
2019-01-14T12:28:22.390Z,1568.00
2019-01-14T12:29:22.407Z,1956.00
2019-01-14T12:30:22.465Z,1920.00
2019-01-14T12:31:22.356Z,2100.00
2019-01-14T12:32:22.371Z,2596.00
2019-01-14T12:33:22.331Z,2932.00
2019-01-14T12:34:22.332Z,3000.00
2019-01-14T12:35:22.329Z,2504.00
2019-01-14T12:36:22.305Z,2440.00
2019-01-14T12:37:22.377Z,1704.00
2019-01-14T12:38:22.275Z,1468.00
2019-01-14T12:39:22.269Z,1136.00
2019-01-14T12:40:24.937Z,1048.00
2019-01-14T12:41:22.242Z,876.00
2019-01-14T12:42:22.224Z,884.00
2019-01-14T12:43:22.276Z,1068.00
2019-01-14T12:44:22.209Z,1220.00
2019-01-14T12:45:22.198Z,1472.00
2019-01-14T12:46:22.184Z,1348.00
2019-01-14T12:47:22.194Z,1376.00
2019-01-14T12:48:22.827Z,1880.00
2019-01-14T12:49:22.155Z,2340.00
2019-01-14T12:50:22.150Z,2076.00